createdAt,value
2018-07-21T00:00:58.994Z,23.38
2018-07-21T00:01:58.923Z,23.38
2018-07-21T00:02:58.956Z,23.44
2018-07-21T00:03:58.760Z,23.41
2018-07-21T00:04:58.702Z,23.35
2018-07-21T00:07:40.655Z,23.29
2018-07-21T00:08:40.562Z,23.22
2018-07-21T00:09:40.483Z,23.29
2018-07-21T00:10:40.404Z,23.19
2018-07-21T00:11:40.321Z,23.25
2018-07-21T00:12:40.259Z,23.19
2018-07-21T00:13:40.191Z,23.22
2018-07-21T00:14:40.098Z,23.23
2018-07-21T00:15:40.019Z,23.21
2018-07-21T00:16:39.955Z,23.21
2018-07-21T00:17:39.859Z,23.11
2018-07-21T00:18:39.815Z,23.06
2018-07-21T00:19:39.726Z,23.07
2018-07-21T00:20:39.630Z,22.99
2018-07-21T00:21:39.554Z,22.97
2018-07-21T00:22:39.484Z,22.93
2018-07-21T00:23:39.430Z,22.96
2018-07-21T00:24:39.345Z,22.93
2018-07-21T00:25:39.243Z,22.86
2018-07-21T00:26:39.186Z,22.81
2018-07-21T00:27:39.094Z,22.75
2018-07-21T00:28:39.042Z,22.74
2018-07-21T00:29:38.935Z,22.66
2018-07-21T00:30:38.876Z,22.67
2018-07-21T00:31:38.788Z,22.66
2018-07-21T00:32:38.716Z,22.60
2018-07-21T00:33:38.645Z,22.59
2018-07-21T00:34:38.594Z,22.63
2018-07-21T00:35:38.488Z,22.63
2018-07-21T00:36:38.406Z,22.63
2018-07-21T00:37:38.334Z,22.57
2018-07-21T00:38:38.280Z,22.51
2018-07-21T00:39:38.177Z,22.54
2018-07-21T00:40:38.102Z,22.48
2018-07-21T00:41:38.027Z,22.56
2018-07-21T00:42:37.944Z,22.56
2018-07-21T00:43:37.891Z,22.46
2018-07-21T00:44:37.797Z,22.45
2018-07-21T00:45:37.723Z,22.41
2018-07-21T00:46:38.662Z,22.46
2018-07-21T00:47:37.564Z,22.45
2018-07-21T00:48:37.494Z,22.45
2018-07-21T00:49:37.424Z,22.41
2018-07-21T00:50:37.337Z,22.35
2018-07-21T00:51:37.245Z,22.38
2018-07-21T00:52:37.193Z,22.38
2018-07-21T00:53:37.100Z,22.38
2018-07-21T00:54:37.024Z,22.33
2018-07-21T00:55:36.952Z,22.31
2018-07-21T00:56:36.880Z,22.30
2018-07-21T00:57:36.798Z,22.33
2018-07-21T00:58:36.727Z,22.29
2018-07-21T00:59:36.630Z,22.29
2018-07-21T01:00:36.576Z,22.17
2018-07-21T01:01:36.481Z,22.14
2018-07-21T01:02:37.436Z,22.24
2018-07-21T01:03:36.344Z,22.11
2018-07-21T01:04:37.283Z,22.04
2018-07-21T01:05:36.181Z,22.05
2018-07-21T01:06:36.123Z,22.06
2018-07-21T01:07:36.024Z,22.12
2018-07-21T01:08:35.994Z,22.08
2018-07-21T01:09:35.896Z,22.12
2018-07-21T01:10:35.790Z,22.08
2018-07-21T01:11:35.707Z,22.02
2018-07-21T01:14:17.650Z,22.06
2018-07-21T01:15:17.630Z,21.93
2018-07-21T01:16:17.492Z,22.01
2018-07-21T01:18:59.647Z,22.08
2018-07-21T01:20:20.586Z,22.12
2018-07-21T01:22:41.681Z,22.01
2018-07-21T01:23:41.590Z,22.02
2018-07-21T01:24:41.544Z,22.05
2018-07-21T01:25:41.435Z,21.99
2018-07-21T01:26:41.356Z,22.08
2018-07-21T01:27:41.272Z,22.09
2018-07-21T01:28:41.184Z,22.04
2018-07-21T01:29:41.111Z,22.05
2018-07-21T01:30:41.047Z,22.01
2018-07-21T01:31:40.983Z,21.99
2018-07-21T01:32:40.879Z,22.01
2018-07-21T01:35:23.194Z,21.98
2018-07-21T01:36:23.081Z,22.04
2018-07-21T01:37:23.000Z,21.96
2018-07-21T01:38:22.972Z,21.89
2018-07-21T01:42:39.697Z,21.90
2018-07-21T01:43:39.586Z,21.96
2018-07-21T01:44:39.522Z,21.94
2018-07-21T01:45:39.437Z,21.93
2018-07-21T01:46:39.397Z,21.99
2018-07-21T01:47:39.274Z,22.04
2018-07-21T01:48:39.218Z,22.02
2018-07-21T01:49:39.124Z,21.85
2018-07-21T01:50:39.064Z,21.83
2018-07-21T01:51:38.990Z,21.68
2018-07-21T01:52:38.906Z,21.66
2018-07-21T01:53:38.855Z,21.73
2018-07-21T01:54:38.749Z,21.81
2018-07-21T01:55:38.659Z,21.81
2018-07-21T01:56:38.595Z,21.67
2018-07-21T01:57:38.535Z,21.64
2018-07-21T01:58:38.428Z,21.64
2018-07-21T01:59:38.349Z,21.63
2018-07-21T02:02:20.679Z,21.58
2018-07-21T02:05:02.684Z,21.74
2018-07-21T02:06:02.597Z,21.67
2018-07-21T02:07:02.543Z,21.74
2018-07-21T02:08:02.460Z,21.82
2018-07-21T02:09:02.360Z,21.71
2018-07-21T02:10:02.316Z,21.82
2018-07-21T02:11:02.204Z,21.70
2018-07-21T02:12:02.135Z,21.66
2018-07-21T02:13:02.194Z,21.73
2018-07-21T02:14:01.985Z,21.61
2018-07-21T02:15:01.901Z,21.33
2018-07-21T02:16:01.858Z,20.97
2018-07-21T02:17:01.740Z,20.53
2018-07-21T02:18:01.688Z,20.13
2018-07-21T02:19:01.579Z,20.07
2018-07-21T02:20:01.512Z,19.75
2018-07-21T02:21:01.420Z,19.52
2018-07-21T02:22:01.382Z,19.40
2018-07-21T02:24:26.700Z,19.13
2018-07-21T02:25:26.596Z,19.17
2018-07-21T02:26:26.528Z,19.16
2018-07-21T02:27:26.442Z,19.10
2018-07-21T02:28:26.376Z,19.16
2018-07-21T02:29:26.308Z,19.27
2018-07-21T02:30:26.201Z,19.32
2018-07-21T02:31:26.132Z,19.24
2018-07-21T02:32:26.102Z,19.27
2018-07-21T02:33:25.999Z,19.30
2018-07-21T02:34:25.905Z,19.28
2018-07-21T02:35:25.815Z,19.32
2018-07-21T02:36:25.748Z,19.30
2018-07-21T02:37:25.680Z,19.25
2018-07-21T02:38:25.571Z,19.31
2018-07-21T02:39:26.557Z,19.55
2018-07-21T02:40:25.427Z,19.50
2018-07-21T02:41:25.357Z,19.49
2018-07-21T02:42:25.253Z,19.61
2018-07-21T02:43:25.206Z,19.49
2018-07-21T02:44:25.102Z,19.46
2018-07-21T02:47:07.178Z,19.42
2018-07-21T02:48:07.127Z,19.53
2018-07-21T02:49:07.038Z,19.45
2018-07-21T02:50:06.945Z,19.53
2018-07-21T02:51:06.861Z,19.42
2018-07-21T02:52:06.786Z,19.32
2018-07-21T02:53:06.713Z,19.43
2018-07-21T02:54:06.658Z,19.39
2018-07-21T02:55:06.559Z,19.46
2018-07-21T02:56:06.477Z,19.28
2018-07-21T02:57:06.405Z,19.34
2018-07-21T02:59:48.710Z,19.28
2018-07-21T03:00:48.630Z,19.24
2018-07-21T03:01:48.525Z,19.24
2018-07-21T03:04:30.682Z,19.27
2018-07-21T03:05:30.607Z,19.25
2018-07-21T03:06:30.548Z,19.24
2018-07-21T03:09:12.681Z,19.28
2018-07-21T03:10:12.611Z,19.35
2018-07-21T03:11:12.539Z,19.31
2018-07-21T03:12:12.464Z,19.32
2018-07-21T03:13:12.371Z,19.32
2018-07-21T03:15:54.195Z,19.32
2018-07-21T03:16:54.141Z,19.28
2018-07-21T03:17:54.028Z,19.34
2018-07-21T03:18:53.971Z,19.34
2018-07-21T03:19:53.864Z,19.27
2018-07-21T03:20:53.819Z,19.46
2018-07-21T03:21:53.749Z,19.47
2018-07-21T03:22:53.644Z,19.43
2018-07-21T03:23:53.561Z,19.28
2018-07-21T03:24:53.497Z,19.27
2018-07-21T03:25:53.430Z,19.28
2018-07-21T03:28:35.691Z,19.27
2018-07-21T03:31:17.724Z,19.32
2018-07-21T03:32:17.622Z,19.24
2018-07-21T03:33:17.547Z,19.28
2018-07-21T03:35:59.690Z,19.31
2018-07-21T03:36:59.653Z,19.42
2018-07-21T03:37:59.531Z,19.46
2018-07-21T03:38:59.468Z,19.60
2018-07-21T03:39:59.380Z,19.60
2018-07-21T03:40:59.330Z,19.62
2018-07-21T03:41:59.249Z,19.67
2018-07-21T03:42:59.157Z,19.60
2018-07-21T03:43:59.073Z,19.61
2018-07-21T03:44:58.996Z,19.62
2018-07-21T03:45:58.921Z,19.53
2018-07-21T03:46:59.874Z,19.62
2018-07-21T03:47:58.744Z,19.61
2018-07-21T03:50:40.699Z,19.78
2018-07-21T03:51:41.637Z,19.64
2018-07-21T03:52:40.557Z,19.55
2018-07-21T03:53:40.463Z,19.49
2018-07-21T03:54:40.380Z,19.53
2018-07-21T03:55:40.327Z,19.55
2018-07-21T03:56:40.223Z,19.49
2018-07-21T03:57:40.184Z,19.62
2018-07-21T03:58:40.087Z,19.70
2018-07-21T03:59:40.001Z,19.75
2018-07-21T04:00:39.991Z,19.71
2018-07-21T04:01:39.847Z,19.71
2018-07-21T04:02:39.768Z,19.75
2018-07-21T04:04:47.306Z,19.72
2018-07-21T04:04:47.826Z,19.72
2018-07-21T04:07:29.746Z,19.57
2018-07-21T04:08:30.640Z,19.55
2018-07-21T04:09:29.588Z,19.50
2018-07-21T04:10:29.477Z,19.43
2018-07-21T04:11:29.385Z,19.57
2018-07-21T04:12:29.316Z,19.57
2018-07-21T04:13:29.264Z,19.64
2018-07-21T04:14:29.156Z,19.64
2018-07-21T04:15:29.073Z,19.58
2018-07-21T04:18:11.250Z,19.55
2018-07-21T04:19:11.167Z,19.55
2018-07-21T04:20:11.055Z,19.55
2018-07-21T04:46:32.774Z,19.75
2018-07-21T04:47:32.680Z,19.71
2018-07-21T04:48:32.596Z,19.68
2018-07-21T04:49:32.519Z,19.68
2018-07-21T04:50:33.474Z,19.71
2018-07-21T04:51:32.359Z,19.76
2018-07-21T04:52:32.284Z,19.85
2018-07-21T04:53:32.203Z,19.82
2018-07-21T04:54:32.130Z,19.92
2018-07-21T04:55:32.080Z,19.92
2018-07-21T04:56:31.978Z,20.15
2018-07-21T04:57:31.877Z,20.16
2018-07-21T05:00:13.840Z,20.33
2018-07-21T05:01:34.675Z,20.44
2018-07-21T05:02:13.568Z,20.50
2018-07-21T05:03:13.484Z,20.50
2018-07-21T05:04:13.414Z,20.54
2018-07-21T05:05:13.346Z,20.51
2018-07-21T05:06:13.259Z,20.51
2018-07-21T05:07:13.172Z,20.57
2018-07-21T05:08:13.088Z,20.54
2018-07-21T05:09:13.023Z,20.60
2018-07-21T05:10:13.949Z,20.56
2018-07-21T05:11:12.875Z,20.63
2018-07-21T05:12:12.829Z,20.71
2018-07-21T05:13:12.695Z,20.79
2018-07-21T05:14:12.627Z,20.81
2018-07-21T05:15:12.550Z,20.83
2018-07-21T05:16:12.480Z,20.85
2018-07-21T05:17:12.410Z,20.97
2018-07-21T05:18:12.317Z,21.09
2018-07-21T05:19:12.230Z,21.01
2018-07-21T05:20:12.240Z,21.16
2018-07-21T05:21:12.088Z,21.13
2018-07-21T05:22:12.017Z,21.08
2018-07-21T05:23:11.938Z,21.08
2018-07-21T05:25:54.283Z,21.13
2018-07-21T05:26:54.144Z,21.12
2018-07-21T05:27:54.072Z,21.15
2018-07-21T05:28:54.010Z,21.18
2018-07-21T05:29:53.915Z,21.15
2018-07-21T05:30:53.884Z,21.33
2018-07-21T05:31:53.776Z,21.37
2018-07-21T05:32:53.718Z,21.52
2018-07-21T05:33:53.603Z,21.52
2018-07-21T05:34:53.536Z,21.53
2018-07-21T05:35:53.446Z,21.59
2018-07-21T05:36:53.404Z,21.58
2018-07-21T05:37:53.449Z,21.64
2018-07-21T05:38:53.222Z,21.70
2018-07-21T05:39:53.159Z,21.63
2018-07-21T05:40:53.071Z,21.75
2018-07-21T05:41:52.999Z,21.70
2018-07-21T05:44:35.240Z,21.94
2018-07-21T05:45:35.195Z,21.99
2018-07-21T05:46:35.104Z,22.06
2018-07-21T05:47:35.005Z,22.05
2018-07-21T05:48:34.929Z,22.19
2018-07-21T05:49:35.992Z,22.12
2018-07-21T05:50:34.777Z,22.33
2018-07-21T05:51:34.719Z,22.38
2018-07-21T05:52:34.622Z,22.48
2018-07-21T05:53:34.558Z,22.69
2018-07-21T05:54:34.511Z,22.66
2018-07-21T05:55:34.395Z,22.66
2018-07-21T05:56:34.313Z,22.72
2018-07-21T05:57:35.267Z,22.67
2018-07-21T05:58:34.169Z,22.76
2018-07-21T05:59:34.090Z,22.89
2018-07-21T06:00:34.028Z,22.94
2018-07-21T06:03:16.242Z,23.12
2018-07-21T06:04:16.212Z,23.11
2018-07-21T06:05:16.109Z,23.00
2018-07-21T06:07:58.281Z,22.99
2018-07-21T06:08:58.176Z,23.18
2018-07-21T06:09:58.089Z,23.07
2018-07-21T06:12:40.270Z,23.11
2018-07-21T06:13:40.193Z,23.15
2018-07-21T06:14:40.095Z,23.14
2018-07-21T06:15:40.078Z,23.06
2018-07-21T06:16:39.949Z,23.21
2018-07-21T06:17:39.912Z,23.37
2018-07-21T06:18:39.829Z,23.52
2018-07-21T06:21:21.743Z,23.60
2018-07-21T06:22:21.757Z,23.67
2018-07-21T06:23:21.590Z,23.60
2018-07-21T06:24:22.532Z,23.63
2018-07-21T06:25:21.467Z,23.56
2018-07-21T06:28:03.877Z,24.18
2018-07-21T06:29:03.741Z,24.71
2018-07-21T06:30:03.608Z,25.05
2018-07-21T06:31:03.528Z,25.12
2018-07-21T06:32:03.438Z,25.60
2018-07-21T06:33:03.407Z,25.91
2018-07-21T06:34:03.302Z,26.44
2018-07-21T06:35:03.284Z,26.53
2018-07-21T06:36:03.142Z,26.71
2018-07-21T06:37:03.088Z,26.44
2018-07-21T06:38:03.011Z,26.36
2018-07-21T06:40:45.370Z,26.51
2018-07-21T06:41:46.212Z,26.69
2018-07-21T06:42:45.102Z,26.56
2018-07-21T06:43:47.029Z,26.06
2018-07-21T06:44:44.960Z,25.74
2018-07-21T06:47:27.281Z,25.63
2018-07-21T06:48:27.208Z,25.45
2018-07-21T06:49:27.153Z,25.51
2018-07-21T06:52:09.266Z,25.76
2018-07-21T06:53:09.217Z,25.67
2018-07-21T06:54:09.107Z,25.66
2018-07-21T06:55:09.112Z,25.74
2018-07-21T06:56:08.994Z,26.24
2018-07-21T06:57:08.955Z,26.16
2018-07-21T06:58:08.824Z,25.94
2018-07-21T06:59:08.794Z,25.83
2018-07-21T07:00:08.676Z,26.19
2018-07-21T07:01:08.617Z,26.72
2018-07-21T07:02:08.523Z,26.81
2018-07-21T07:03:08.505Z,26.83
2018-07-21T07:04:08.422Z,27.33
2018-07-21T07:05:08.321Z,27.77
2018-07-21T07:06:08.300Z,27.83
2018-07-21T07:07:08.182Z,28.24
2018-07-21T07:08:08.117Z,28.48
2018-07-21T07:09:08.021Z,28.95
2018-07-21T07:10:07.977Z,29.17
2018-07-21T07:11:07.872Z,29.20
2018-07-21T07:12:07.905Z,28.85
2018-07-21T07:13:07.764Z,28.32
2018-07-21T07:14:07.658Z,28.15
2018-07-21T07:15:07.610Z,28.05
2018-07-21T07:16:07.507Z,28.33
2018-07-21T07:17:07.465Z,28.62
2018-07-21T07:18:07.406Z,28.52
2018-07-21T07:19:07.353Z,28.57
2018-07-21T07:20:07.254Z,28.98
2018-07-21T07:21:07.159Z,28.69
2018-07-21T07:22:07.094Z,28.21
2018-07-21T07:23:07.047Z,28.39
2018-07-21T07:24:06.982Z,28.80
2018-07-21T07:25:06.882Z,29.17
2018-07-21T07:26:06.827Z,29.55
2018-07-21T07:27:06.765Z,29.97
2018-07-21T07:28:06.666Z,30.38
2018-07-21T07:29:06.649Z,30.42
2018-07-21T07:30:06.650Z,30.29
2018-07-21T07:32:48.835Z,30.15
2018-07-21T07:33:48.763Z,29.71
2018-07-21T07:34:48.667Z,29.74
2018-07-21T07:35:48.577Z,29.48
2018-07-21T07:36:48.495Z,29.54
2018-07-21T07:37:48.438Z,29.81
2018-07-21T07:38:48.357Z,30.25
2018-07-21T07:39:49.314Z,30.06
2018-07-21T07:40:48.220Z,29.44
2018-07-21T07:41:48.157Z,29.18
2018-07-21T07:42:48.088Z,29.26
2018-07-21T07:43:48.028Z,29.35
2018-07-21T07:44:47.971Z,29.62
2018-07-21T07:45:48.988Z,29.88
2018-07-21T07:46:47.808Z,30.21
2018-07-21T07:47:47.754Z,30.25
2018-07-21T07:48:47.709Z,29.99
2018-07-21T07:49:48.683Z,29.76
2018-07-21T07:50:47.541Z,29.21
2018-07-21T07:51:47.469Z,29.05
2018-07-21T07:52:47.402Z,29.03
2018-07-21T07:53:47.349Z,29.20
2018-07-21T07:54:47.290Z,29.37
2018-07-21T07:55:47.216Z,29.85
2018-07-21T07:56:47.156Z,30.07
2018-07-21T07:57:47.066Z,30.83
2018-07-21T07:58:46.987Z,30.94
2018-07-21T07:59:46.924Z,31.15
2018-07-21T08:00:46.862Z,30.79
2018-07-21T08:01:46.828Z,31.00
2018-07-21T08:02:46.714Z,30.32
2018-07-21T08:05:28.780Z,29.88
2018-07-21T08:06:28.729Z,29.76
2018-07-21T08:07:28.670Z,29.18
2018-07-21T08:08:30.625Z,29.07
2018-07-21T08:09:28.524Z,29.10
2018-07-21T08:10:28.471Z,28.61
2018-07-21T08:11:28.374Z,28.65
2018-07-21T08:12:28.339Z,28.61
2018-07-21T08:13:28.244Z,28.62
2018-07-21T08:14:28.177Z,29.20
2018-07-21T08:15:28.100Z,29.74
2018-07-21T08:16:28.053Z,29.78
2018-07-21T08:17:27.991Z,30.36
2018-07-21T08:18:27.893Z,30.75
2018-07-21T08:19:27.846Z,31.09
2018-07-21T08:20:27.769Z,31.30
2018-07-21T08:21:27.684Z,30.93
2018-07-21T08:22:27.700Z,30.68
2018-07-21T08:33:50.413Z,33.53
2018-07-21T08:34:50.469Z,33.33
2018-07-21T08:35:50.260Z,32.76
2018-07-21T08:36:50.336Z,32.21
2018-07-21T08:37:50.118Z,31.99
2018-07-21T08:38:50.129Z,32.28
2018-07-21T08:39:50.035Z,32.47
2018-07-21T08:40:50.000Z,32.61
2018-07-21T08:41:49.852Z,32.03
2018-07-21T08:42:49.920Z,31.56
2018-07-21T08:43:49.775Z,30.97
2018-07-21T08:44:49.727Z,30.86
2018-07-21T08:45:49.612Z,30.98
2018-07-21T08:46:49.642Z,30.78
2018-07-21T08:47:49.472Z,30.96
2018-07-21T08:48:49.612Z,31.30
2018-07-21T08:49:49.376Z,31.87
2018-07-21T08:50:49.445Z,31.98
2018-07-21T08:51:49.209Z,32.34
2018-07-21T08:52:49.181Z,32.32
2018-07-21T08:53:49.109Z,32.61
2018-07-21T08:54:49.143Z,32.66
2018-07-21T08:55:49.074Z,32.76
2018-07-21T08:56:49.000Z,32.49
2018-07-21T08:57:48.822Z,31.38
2018-07-21T08:58:49.001Z,31.10
2018-07-21T08:59:48.754Z,30.86
2018-07-21T09:00:48.815Z,31.76
2018-07-21T09:01:48.580Z,32.46
2018-07-21T09:02:49.141Z,32.56
2018-07-21T09:03:48.475Z,33.11
2018-07-21T09:06:30.360Z,33.17
2018-07-21T09:07:30.323Z,33.15
2018-07-21T09:08:30.188Z,33.59
2018-07-21T09:09:30.173Z,33.56
2018-07-21T09:10:30.167Z,32.90
2018-07-21T09:11:30.191Z,32.58
2018-07-21T09:12:29.927Z,31.41
2018-07-21T09:13:29.957Z,31.84
2018-07-21T09:14:29.799Z,32.10
2018-07-21T09:15:29.952Z,32.56
2018-07-21T09:16:29.672Z,33.07
2018-07-21T09:17:29.666Z,33.31
2018-07-21T09:18:29.660Z,32.98
2018-07-21T09:19:29.592Z,31.99
2018-07-21T09:20:29.457Z,31.84
2018-07-21T09:21:29.428Z,32.17
2018-07-21T09:22:29.343Z,32.51
2018-07-21T09:23:29.295Z,32.41
2018-07-21T09:24:29.156Z,32.46
2018-07-21T09:25:29.158Z,32.46
2018-07-21T09:27:53.813Z,32.44
2018-07-21T09:28:53.848Z,32.36
2018-07-21T09:29:53.707Z,32.43
2018-07-21T09:33:33.915Z,33.02
2018-07-21T09:34:33.763Z,32.53
2018-07-21T09:35:33.822Z,31.87
2018-07-21T09:36:33.630Z,31.60
2018-07-21T09:37:33.774Z,32.49
2018-07-21T09:38:33.528Z,33.06
2018-07-21T09:39:33.509Z,33.71
2018-07-21T09:40:33.396Z,33.18
2018-07-21T09:41:33.450Z,32.84
2018-07-21T09:42:33.366Z,32.85
2018-07-21T09:43:33.224Z,32.85
2018-07-21T09:44:33.126Z,32.61
2018-07-21T09:45:33.160Z,32.61
2018-07-21T09:46:32.994Z,32.95
2018-07-21T09:47:33.040Z,33.52
2018-07-21T09:48:32.895Z,33.92
2018-07-21T09:49:32.896Z,34.38
2018-07-21T09:50:32.815Z,34.34
2018-07-21T09:51:32.807Z,34.28
2018-07-21T09:52:32.621Z,34.36
2018-07-21T09:53:33.630Z,34.58
2018-07-21T09:54:32.486Z,34.55
2018-07-21T09:55:32.599Z,34.05
2018-07-21T09:56:32.371Z,33.55
2018-07-21T09:57:32.404Z,32.65
2018-07-21T09:58:32.341Z,32.76
2018-07-21T09:59:32.240Z,33.26
2018-07-21T10:00:32.125Z,33.52
2018-07-21T10:01:32.087Z,33.52
2018-07-21T10:02:31.999Z,33.37
2018-07-21T10:03:32.130Z,33.89
2018-07-21T10:04:31.877Z,33.97
2018-07-21T10:05:31.841Z,33.89
2018-07-21T10:06:31.759Z,33.89
2018-07-21T10:07:31.781Z,34.00
2018-07-21T10:08:31.620Z,33.45
2018-07-21T10:09:31.702Z,33.17
2018-07-21T10:10:31.644Z,33.35
2018-07-21T10:11:31.560Z,33.21
2018-07-21T10:12:31.385Z,32.95
2018-07-21T10:13:31.415Z,33.12
2018-07-21T10:14:31.255Z,33.66
2018-07-21T10:15:31.317Z,33.53
2018-07-21T10:16:31.127Z,33.96
2018-07-21T10:17:31.131Z,34.64
2018-07-21T10:18:31.002Z,34.72
2018-07-21T10:19:31.268Z,34.99
2018-07-21T10:20:30.903Z,34.95
2018-07-21T10:21:30.916Z,34.45
2018-07-21T10:22:30.777Z,34.53
2018-07-21T10:23:30.763Z,34.87
2018-07-21T10:24:30.630Z,34.83
2018-07-21T10:25:30.704Z,34.84
2018-07-21T10:26:30.527Z,35.25
2018-07-21T10:27:30.593Z,35.66
2018-07-21T10:28:30.518Z,35.89
2018-07-21T10:29:30.400Z,35.50
2018-07-21T10:30:30.284Z,35.61
2018-07-21T10:31:30.330Z,34.84
2018-07-21T10:32:30.161Z,34.53
2018-07-21T10:33:30.256Z,34.08
2018-07-21T10:34:30.071Z,33.92
2018-07-21T10:35:30.088Z,33.33
2018-07-21T10:36:29.955Z,33.49
2018-07-21T10:37:29.966Z,33.26
2018-07-21T10:38:29.796Z,33.77
2018-07-21T10:39:29.820Z,33.96
2018-07-21T10:40:29.742Z,34.28
2018-07-21T10:41:29.808Z,34.24
2018-07-21T10:42:29.672Z,35.10
2018-07-21T10:43:29.531Z,35.17
2018-07-21T10:44:29.445Z,34.08
2018-07-21T10:45:29.448Z,33.18
2018-07-21T10:46:29.311Z,32.93
2018-07-21T10:47:29.380Z,33.62
2018-07-21T10:48:29.197Z,33.74
2018-07-21T10:49:29.329Z,34.15
2018-07-21T10:50:29.101Z,34.65
2018-07-21T10:51:29.065Z,34.26
2018-07-21T10:52:28.941Z,33.93
2018-07-21T10:53:29.028Z,33.96
2018-07-21T10:54:28.822Z,33.90
2018-07-21T10:55:28.833Z,34.18
2018-07-21T10:56:28.711Z,34.18
2018-07-21T10:57:28.699Z,34.14
2018-07-21T10:58:28.730Z,34.40
2018-07-21T10:59:28.611Z,34.60
2018-07-21T11:00:28.462Z,34.63
2018-07-21T11:01:28.461Z,34.65
2018-07-21T11:02:28.329Z,34.15
2018-07-21T11:03:28.332Z,34.36
2018-07-21T11:04:28.223Z,34.46
2018-07-21T11:05:28.388Z,34.88
2018-07-21T11:06:28.080Z,35.05
2018-07-21T11:07:28.188Z,34.45
2018-07-21T11:08:27.958Z,34.14
2018-07-21T11:09:27.963Z,34.42
2018-07-21T11:10:27.861Z,34.78
2018-07-21T11:11:27.892Z,34.18
2018-07-21T11:12:27.755Z,34.14
2018-07-21T11:13:27.784Z,34.48
2018-07-21T11:14:27.772Z,34.50
2018-07-21T11:15:27.603Z,35.00
2018-07-21T11:16:27.502Z,35.06
2018-07-21T11:17:27.535Z,35.05
2018-07-21T11:18:27.407Z,34.33
2018-07-21T11:19:27.412Z,33.72
2018-07-21T11:20:27.225Z,34.27
2018-07-21T11:21:27.230Z,34.16
2018-07-21T11:22:27.126Z,34.48
2018-07-21T11:25:09.361Z,34.06
2018-07-21T11:26:09.342Z,34.50
2018-07-21T11:27:09.294Z,34.91
2018-07-21T11:28:09.279Z,35.18
2018-07-21T11:29:09.098Z,34.64
2018-07-21T11:30:09.150Z,33.71
2018-07-21T11:31:09.013Z,33.20
2018-07-21T11:32:08.998Z,33.24
2018-07-21T11:33:08.979Z,32.76
2018-07-21T11:34:08.872Z,32.21
2018-07-21T11:35:08.749Z,31.95
2018-07-21T11:36:09.032Z,32.16
2018-07-21T11:37:08.623Z,32.77
2018-07-21T11:38:08.636Z,32.19
2018-07-21T11:39:08.511Z,31.99
2018-07-21T11:40:08.502Z,31.98
2018-07-21T11:41:08.378Z,31.62
2018-07-21T11:42:08.410Z,31.37
2018-07-21T11:43:08.281Z,30.63
2018-07-21T11:44:08.224Z,30.25
2018-07-21T11:45:08.124Z,30.40
2018-07-21T11:46:08.138Z,30.38
2018-07-21T11:47:07.993Z,30.49
2018-07-21T11:48:07.985Z,30.61
2018-07-21T11:49:07.949Z,30.83
2018-07-21T11:50:07.844Z,30.94
2018-07-21T11:51:07.734Z,31.05
2018-07-21T11:52:07.764Z,31.72
2018-07-21T11:53:07.644Z,32.03
2018-07-21T11:54:07.719Z,32.43
2018-07-21T11:55:07.467Z,32.61
2018-07-21T11:56:07.474Z,32.32
2018-07-21T11:57:07.343Z,32.61
2018-07-21T11:58:07.446Z,32.63
2018-07-21T11:59:07.290Z,33.22
2018-07-21T12:00:07.199Z,33.70
2018-07-21T12:01:07.068Z,34.08
2018-07-21T12:02:07.114Z,34.33
2018-07-21T12:03:07.074Z,34.48
2018-07-21T12:04:06.957Z,34.53
2018-07-21T12:05:06.797Z,33.79
2018-07-21T12:06:06.833Z,33.22
2018-07-21T12:07:06.678Z,32.61
2018-07-21T12:08:06.643Z,32.31
2018-07-21T12:09:06.571Z,32.06
2018-07-21T12:10:06.646Z,31.84
2018-07-21T12:11:06.460Z,31.68
2018-07-21T12:13:48.380Z,32.84
2018-07-21T12:14:48.389Z,32.91
2018-07-21T12:15:48.249Z,32.71
2018-07-21T12:16:48.269Z,32.12
2018-07-21T12:17:48.125Z,31.37
2018-07-21T12:18:48.068Z,30.90
2018-07-21T12:19:47.990Z,31.01
2018-07-21T12:20:48.014Z,31.10
2018-07-21T12:21:47.868Z,31.04
2018-07-21T12:22:47.883Z,31.09
2018-07-21T12:23:47.733Z,31.31
2018-07-21T12:24:47.776Z,31.42
2018-07-21T12:25:47.574Z,31.64
2018-07-21T12:26:47.606Z,31.85
2018-07-21T12:27:47.424Z,31.87
2018-07-21T12:28:47.424Z,31.76
2018-07-21T12:29:47.307Z,31.76
2018-07-21T12:30:47.370Z,32.02
2018-07-21T12:31:47.150Z,31.98
2018-07-21T12:32:47.139Z,31.90
2018-07-21T12:33:47.234Z,32.16
2018-07-21T12:34:47.089Z,32.31
2018-07-21T12:35:46.893Z,32.34
2018-07-21T12:36:46.864Z,32.31
2018-07-21T12:37:46.756Z,32.31
2018-07-21T12:38:46.893Z,32.29
2018-07-21T12:39:48.402Z,31.98
2018-07-21T12:40:46.683Z,32.02
2018-07-21T12:41:46.484Z,32.19
2018-07-21T12:42:46.490Z,32.39
2018-07-21T12:43:46.353Z,32.49
2018-07-21T12:44:46.381Z,32.46
2018-07-21T12:45:46.273Z,32.53
2018-07-21T12:46:46.218Z,32.51
2018-07-21T12:47:46.070Z,32.34
2018-07-21T12:48:46.134Z,32.34
2018-07-21T12:49:45.939Z,31.97
2018-07-21T12:50:45.939Z,32.09
2018-07-21T12:51:45.828Z,32.05
2018-07-21T12:52:45.842Z,31.94
2018-07-21T12:53:45.648Z,31.62
2018-07-21T12:54:45.775Z,31.40
2018-07-21T12:55:45.541Z,31.22
2018-07-21T12:56:45.606Z,31.03
2018-07-21T12:57:45.398Z,31.12
2018-07-21T13:00:27.382Z,31.03
2018-07-21T13:01:27.414Z,30.98
2018-07-21T13:02:27.256Z,31.27
2018-07-21T13:03:27.280Z,31.30
2018-07-21T13:04:27.198Z,31.34
2018-07-21T13:05:27.080Z,30.88
2018-07-21T13:06:27.000Z,30.93
2018-07-21T13:07:27.000Z,31.09
2018-07-21T13:08:26.861Z,31.41
2018-07-21T13:09:26.795Z,31.74
2018-07-21T13:10:26.712Z,31.37
2018-07-21T13:11:26.797Z,30.86
2018-07-21T13:12:26.564Z,30.56
2018-07-21T13:13:26.594Z,30.70
2018-07-21T13:14:26.415Z,31.23
2018-07-21T13:15:26.440Z,31.47
2018-07-21T13:18:33.919Z,32.29
2018-07-21T13:19:33.943Z,32.68
2018-07-21T13:20:33.795Z,32.80
2018-07-21T13:21:33.752Z,32.61
2018-07-21T13:22:33.636Z,32.50
2018-07-21T13:23:33.686Z,32.40
2018-07-21T13:24:33.501Z,32.34
2018-07-21T13:25:33.528Z,32.02
2018-07-21T13:26:33.354Z,31.78
2018-07-21T13:27:33.369Z,31.82
2018-07-21T13:28:33.325Z,31.71
2018-07-21T13:29:33.218Z,31.64
2018-07-21T13:30:33.067Z,31.62
2018-07-21T13:31:33.052Z,31.57
2018-07-21T13:32:32.927Z,31.65
2018-07-21T13:33:32.908Z,31.62
2018-07-21T13:34:32.824Z,31.42
2018-07-21T13:35:32.831Z,31.28
2018-07-21T13:36:32.658Z,31.07
2018-07-21T13:37:32.636Z,31.19
2018-07-21T13:38:32.524Z,31.41
2018-07-21T13:39:32.569Z,31.76
2018-07-21T13:40:32.401Z,31.78
2018-07-21T13:41:32.344Z,31.88
2018-07-21T13:42:32.238Z,32.03
2018-07-21T13:43:32.245Z,31.78
2018-07-21T13:44:32.152Z,31.45
2018-07-21T13:45:32.066Z,31.54
2018-07-21T13:46:32.042Z,31.76
2018-07-21T13:47:31.967Z,31.71
2018-07-21T13:48:31.837Z,31.74
2018-07-21T13:49:31.940Z,31.76
2018-07-21T13:50:31.751Z,31.79
2018-07-21T13:51:31.706Z,31.78
2018-07-21T13:52:31.540Z,31.90
2018-07-21T13:53:31.617Z,31.98
2018-07-21T13:54:31.410Z,32.05
2018-07-21T13:55:31.496Z,32.17
2018-07-21T13:56:31.258Z,32.09
2018-07-21T13:57:31.324Z,31.97
2018-07-21T13:58:31.119Z,32.02
2018-07-21T13:59:31.146Z,32.02
2018-07-21T14:00:31.037Z,31.59
2018-07-21T14:01:31.045Z,31.25
2018-07-21T14:02:30.861Z,31.20
2018-07-21T14:03:30.883Z,31.16
2018-07-21T14:04:30.715Z,31.35
2018-07-21T14:05:30.818Z,31.47
2018-07-21T14:06:30.597Z,31.47
2018-07-21T14:07:30.678Z,31.37
2018-07-21T14:08:30.438Z,31.53
2018-07-21T14:09:30.481Z,31.35
2018-07-21T14:10:30.310Z,31.13
2018-07-21T14:11:30.374Z,31.25
2018-07-21T14:12:30.153Z,31.38
2018-07-21T14:13:30.204Z,31.49
2018-07-21T14:14:30.044Z,31.13
2018-07-21T14:15:30.150Z,31.27
2018-07-21T14:16:29.876Z,31.20
2018-07-21T14:17:29.985Z,31.15
2018-07-21T14:18:29.730Z,31.38
2018-07-21T14:19:29.887Z,31.67
2018-07-21T14:20:29.627Z,31.84
2018-07-21T14:21:29.694Z,31.88
2018-07-21T14:22:29.522Z,31.90
2018-07-21T14:23:29.446Z,32.03
2018-07-21T14:24:29.307Z,31.95
2018-07-21T14:25:29.427Z,31.87
2018-07-21T14:26:29.190Z,31.88
2018-07-21T14:27:29.194Z,31.84
2018-07-21T14:28:29.040Z,31.79
2018-07-21T14:29:29.138Z,31.68
2018-07-21T14:30:28.886Z,31.82
2018-07-21T14:31:28.930Z,31.79
2018-07-21T14:32:28.770Z,31.42
2018-07-21T14:33:28.856Z,31.25
2018-07-21T14:34:28.674Z,31.37
2018-07-21T14:35:28.626Z,31.28
2018-07-21T14:36:28.670Z,31.07
2018-07-21T14:37:28.516Z,30.93
2018-07-21T14:38:28.386Z,30.96